Time;durP1;ratioP1;P1;durP2;ratioP2;P2;SDS_P1;SDS_P2;PMS_P1;PMS_P2;Temp;Humidity;BMP_temperature;BMP_pressure;BME280_temperature;BME280_humidity;BME280_pressure;Samples;Min_cycle;Max_cycle;Signal;HPM_P1;HPM_P2
2023/03/21 00:08:50;;;;;;;9.07;3.90;;;9.10;99.90;;;;;;6376424;22;20021;-83
2023/03/21 00:11:16;;;;;;;9.23;4.50;;;9.20;99.90;;;;;;6322850;22;20350;-89
2023/03/21 00:13:42;;;;;;;14.43;5.23;;;9.20;99.90;;;;;;6348610;22;20019;-94
2023/03/21 00:16:14;;;;;;;10.77;4.10;;;9.10;99.90;;;;;;6374662;22;20101;-85
2023/03/21 00:18:51;;;;;;;9.40;3.80;;;9.20;99.90;;;;;;6374776;22;20013;-85
2023/03/21 00:21:27;;;;;;;9.73;4.18;;;9.10;99.90;;;;;;6347777;22;20029;-92
2023/03/21 00:23:54;;;;;;;8.93;4.22;;;9.20;99.90;;;;;;6401040;22;20018;-95
2023/03/21 00:26:21;;;;;;;9.73;4.18;;;9.20;99.90;;;;;;6374554;22;20146;-88
2023/03/21 00:28:47;;;;;;;10.43;3.85;;;9.20;99.90;;;;;;6348233;22;20010;-92
2023/03/21 00:31:13;;;;;;;8.65;3.90;;;9.20;99.90;;;;;;6348342;22;20047;-92
2023/03/21 00:36:15;;;;;;;8.93;3.90;;;9.20;99.90;;;;;;6293289;22;20337;-86
2023/03/21 00:38:41;;;;;;;8.10;3.45;;;9.20;99.90;;;;;;6219750;22;20072;-87
2023/03/21 00:41:10;;;;;;;8.40;3.53;;;9.20;99.90;;;;;;6244733;22;20023;-88
2023/03/21 00:43:36;;;;;;;8.52;4.18;;;9.20;99.90;;;;;;6244921;22;20303;-86
2023/03/21 00:46:03;;;;;;;10.23;4.00;;;9.20;99.90;;;;;;6244754;22;20051;-86
2023/03/21 00:48:29;;;;;;;9.75;3.60;;;9.20;99.90;;;;;;6219504;22;20015;-86
2023/03/21 00:50:58;;;;;;;10.45;4.43;;;9.20;99.90;;;;;;6244838;22;20019;-87
2023/03/21 00:53:24;;;;;;;8.05;3.22;;;9.20;99.90;;;;;;6244722;22;20024;-86
2023/03/21 00:55:50;;;;;;;8.95;3.92;;;9.20;99.90;;;;;;6244845;22;20019;-89
2023/03/21 00:58:17;;;;;;;7.97;3.35;;;9.20;99.90;;;;;;6271941;22;20015;-86
2023/03/21 01:00:45;;;;;;;7.57;3.25;;;9.20;99.90;;;;;;6272038;22;20016;-85
2023/03/21 01:03:12;;;;;;;10.98;3.38;;;9.20;99.90;;;;;;6244715;22;20016;-87
2023/03/21 01:08:27;;;;;;;8.48;3.58;;;9.20;99.90;;;;;;6244761;22;20027;-88
2023/03/21 01:10:54;;;;;;;10.02;4.03;;;9.20;99.90;;;;;;6244653;22;20020;-86
2023/03/21 01:13:21;;;;;;;;;;;9.20;99.90;;;;;;6245009;22;20094;-87
2023/03/21 01:15:52;;;;;;;12.23;4.43;;;9.20;99.90;;;;;;6219300;22;19923;-86
2023/03/21 01:18:22;;;;;;;14.05;4.88;;;9.20;99.90;;;;;;6244406;22;20436;-87
2023/03/21 01:20:48;;;;;;;16.58;5.65;;;9.20;99.90;;;;;;6245775;22;20019;-86
2023/03/21 01:23:15;;;;;;;14.00;4.88;;;9.20;99.90;;;;;;6220404;22;20012;-86
2023/03/21 01:25:41;;;;;;;13.27;4.88;;;9.20;99.90;;;;;;6245843;22;20440;-86
2023/03/21 01:28:08;;;;;;;15.48;5.70;;;9.20;99.90;;;;;;6245803;22;20012;-89
2023/03/21 01:30:33;;;;;;;14.95;5.45;;;9.20;99.90;;;;;;6220199;22;20024;-87
2023/03/21 01:32:59;;;;;;;13.73;5.50;;;9.20;99.90;;;;;;6245821;22;20023;-85
2023/03/21 01:35:25;;;;;;;16.67;5.13;;;9.20;99.90;;;;;;6220116;22;20069;-85
2023/03/21 01:37:51;;;;;;;18.95;5.72;;;9.20;99.90;;;;;;6245800;22;20055;-86
2023/03/21 01:40:22;;;;;;;18.47;5.63;;;9.20;99.90;;;;;;6272638;22;20051;-85
2023/03/21 01:42:48;;;;;;;21.25;6.30;;;9.20;99.90;;;;;;6245644;22;20250;-85
2023/03/21 01:45:51;;;;;;;19.83;5.87;;;9.20;99.90;;;;;;6245627;22;20015;-88
2023/03/21 01:48:20;;;;;;;19.23;5.78;;;9.20;99.90;;;;;;6220091;22;20012;-86
2023/03/21 01:50:46;;;;;;;18.52;5.63;;;9.20;99.90;;;;;;6245837;22;20023;-87
2023/03/21 01:53:13;;;;;;;19.55;6.45;;;9.20;99.90;;;;;;6273025;22;20500;-88
2023/03/21 01:55:40;;;;;;;19.48;5.93;;;9.20;99.90;;;;;;6220702;22;20378;-86
2023/03/21 01:58:09;;;;;;;15.70;5.55;;;9.20;99.90;;;;;;6220053;22;20047;-85
2023/03/21 02:00:36;;;;;;;19.45;6.38;;;9.20;99.90;;;;;;6220332;22;20076;-86
2023/03/21 02:03:07;;;;;;;15.98;5.95;;;9.20;99.90;;;;;;6245769;22;20071;-88
2023/03/21 02:06:06;;;;;;;16.13;6.07;;;9.20;99.90;;;;;;6245807;22;20084;-88
2023/03/21 02:08:32;;;;;;;15.65;4.95;;;9.20;99.90;;;;;;6245539;22;20012;-86
2023/03/21 02:10:58;;;;;;;13.27;4.72;;;9.20;99.90;;;;;;6245606;22;20020;-88
2023/03/21 02:13:25;;;;;;;15.80;5.40;;;9.20;99.90;;;;;;6245851;22;20007;-85
2023/03/21 02:16:32;;;;;;;13.27;5.38;;;9.20;99.90;;;;;;6220391;22;20020;-86
2023/03/21 02:19:11;;;;;;;14.77;5.63;;;9.20;99.90;;;;;;6288807;22;20067;-86
2023/03/21 02:22:24;;;;;;;13.48;5.55;;;9.20;99.90;;;;;;6245779;22;20389;-86
2023/03/21 02:25:34;;;;;;;16.48;5.20;;;9.20;99.90;;;;;;6245866;22;20037;-86
2023/03/21 02:28:08;;;;;;;18.20;5.15;;;9.20;99.90;;;;;;6220004;22;20023;-84
2023/03/21 02:31:03;;;;;;;17.95;5.65;;;9.20;99.90;;;;;;6245326;22;20057;-85
2023/03/21 02:34:01;;;;;;;18.80;6.10;;;9.20;99.90;;;;;;6220278;22;20068;-85
2023/03/21 02:36:43;;;;;;;14.65;5.13;;;9.20;99.90;;;;;;6254446;22;20090;-88
2023/03/21 02:39:22;;;;;;;18.48;5.90;;;9.20;99.90;;;;;;6220247;22;20020;-86
2023/03/21 02:42:12;;;;;;;17.83;5.85;;;9.20;99.90;;;;;;6245363;22;20011;-86
2023/03/21 02:44:48;;;;;;;17.80;6.13;;;9.20;99.90;;;;;;6245007;22;20345;-87
2023/03/21 02:47:19;;;;;;;13.40;6.00;;;9.20;99.90;;;;;;6220189;22;20058;-86
2023/03/21 02:50:01;;;;;;;16.42;5.88;;;9.20;99.90;;;;;;6245877;22;20016;-86
2023/03/21 02:52:30;;;;;;;17.73;6.35;;;9.30;99.90;;;;;;6245527;22;20019;-87
2023/03/21 02:54:58;;;;;;;14.43;5.65;;;9.20;99.90;;;;;;6272670;22;20011;-88
2023/03/21 02:57:24;;;;;;;13.60;5.22;;;9.20;99.90;;;;;;6246171;22;20012;-86
2023/03/21 02:59:51;;;;;;;15.27;5.50;;;9.20;99.90;;;;;;6273236;22;20347;-85
2023/03/21 03:02:22;;;;;;;15.15;5.93;;;9.20;99.90;;;;;;6251323;22;20019;-87
2023/03/21 03:04:56;;;;;;;12.68;5.40;;;9.20;99.90;;;;;;6254056;22;20058;-87
2023/03/21 03:07:37;;;;;;;16.13;6.00;;;9.30;99.90;;;;;;6228825;22;20012;-87
2023/03/21 03:10:05;;;;;;;15.50;6.88;;;9.20;99.90;;;;;;6220092;22;20020;-85
2023/03/21 03:13:06;;;;;;;15.48;6.10;;;9.20;99.90;;;;;;6245220;22;20371;-86
2023/03/21 03:16:08;;;;;;;13.82;6.00;;;9.30;99.90;;;;;;6220238;22;20019;-85
2023/03/21 03:18:44;;;;;;;14.38;6.32;;;9.30;99.90;;;;;;6220216;22;20022;-86
2023/03/21 03:21:34;;;;;;;14.60;5.95;;;9.30;99.90;;;;;;6219832;22;20060;-86
2023/03/21 03:24:19;;;;;;;12.77;5.68;;;9.30;99.90;;;;;;6245001;22;20061;-88
2023/03/21 03:26:58;;;;;;;14.65;6.15;;;9.30;99.90;;;;;;6219844;22;20314;-88
2023/03/21 03:29:26;;;;;;;14.07;6.35;;;9.30;99.90;;;;;;6219830;22;20034;-88
2023/03/21 03:32:02;;;;;;;15.10;5.55;;;9.30;99.90;;;;;;6271726;22;20015;-88
2023/03/21 03:34:33;;;;;;;14.95;6.45;;;9.30;99.90;;;;;;6271995;22;20327;-89
2023/03/21 03:37:04;;;;;;;16.70;7.13;;;9.30;99.90;;;;;;6271882;22;20024;-88
2023/03/21 03:39:36;;;;;;;13.02;5.70;;;9.30;99.90;;;;;;6271711;22;20083;-89
2023/03/21 03:42:14;;;;;;;14.82;6.75;;;9.30;99.90;;;;;;6244599;22;20043;-89
2023/03/21 03:44:40;;;;;;;12.95;5.32;;;9.30;99.90;;;;;;6271877;22;20051;-88
2023/03/21 03:47:09;;;;;;;13.43;5.95;;;9.30;99.90;;;;;;6245357;22;20027;-88
2023/03/21 03:49:42;;;;;;;13.20;5.70;;;9.30;99.90;;;;;;6271921;22;20023;-89
2023/03/21 03:52:16;;;;;;;12.57;5.43;;;9.40;99.90;;;;;;6219372;22;20016;-89
2023/03/21 03:54:45;;;;;;;16.25;6.10;;;9.30;99.90;;;;;;6244852;22;20034;-88
2023/03/21 03:57:12;;;;;;;14.60;5.90;;;9.30;99.90;;;;;;6271715;22;20020;-88
2023/03/21 03:59:40;;;;;;;13.80;5.90;;;9.30;99.90;;;;;;6245311;22;20027;-87
2023/03/21 04:02:07;;;;;;;12.27;5.47;;;9.40;99.90;;;;;;6272053;22;20019;-89
2023/03/21 04:04:51;;;;;;;12.38;5.10;;;9.40;99.90;;;;;;6244994;22;20015;-87
2023/03/21 04:07:20;;;;;;;12.18;5.13;;;9.40;99.90;;;;;;6220224;22;20020;-88
2023/03/21 04:09:46;;;;;;;13.52;6.03;;;9.40;99.90;;;;;;6244948;22;20014;-88
2023/03/21 04:12:12;;;;;;;12.87;5.60;;;9.30;99.90;;;;;;6245259;22;20055;-87
2023/03/21 04:14:38;;;;;;;13.63;5.82;;;9.40;99.90;;;;;;6245012;22;20457;-87
2023/03/21 04:17:03;;;;;;;14.43;5.75;;;9.40;99.90;;;;;;6244750;22;20026;-87
2023/03/21 04:20:19;;;;;;;12.53;5.40;;;9.40;99.90;;;;;;6244997;22;20019;-88
2023/03/21 04:23:12;;;;;;;12.38;5.28;;;9.40;99.90;;;;;;6245026;22;20448;-88
2023/03/21 04:25:44;;;;;;;13.77;5.60;;;9.40;99.90;;;;;;6220114;22;20478;-87
2023/03/21 04:28:10;;;;;;;11.25;4.70;;;9.40;99.90;;;;;;6245133;22;20058;-87
2023/03/21 04:30:36;;;;;;;11.57;4.78;;;9.40;99.90;;;;;;6195260;22;20016;-87
2023/03/21 04:33:02;;;;;;;12.10;5.23;;;9.30;99.90;;;;;;6219895;22;20030;-89
2023/03/21 04:35:28;;;;;;;13.07;4.93;;;9.40;99.90;;;;;;6195184;22;20019;-88
2023/03/21 04:37:54;;;;;;;15.07;5.40;;;9.40;99.90;;;;;;6245516;22;20020;-88
2023/03/21 04:40:25;;;;;;;12.05;4.80;;;9.40;99.90;;;;;;6171319;22;20344;-89
2023/03/21 04:42:51;;;;;;;13.02;5.05;;;9.40;99.90;;;;;;6194658;22;20016;-88
2023/03/21 04:45:17;;;;;;;12.23;4.72;;;9.40;99.90;;;;;;6219894;22;20016;-88
2023/03/21 04:47:43;;;;;;;10.87;4.47;;;9.40;99.90;;;;;;6245409;22;20322;-87
2023/03/21 04:50:10;;;;;;;11.57;4.50;;;9.40;99.90;;;;;;6194928;22;20016;-88
2023/03/21 04:52:36;;;;;;;11.38;4.28;;;9.30;99.90;;;;;;6194713;22;20019;-88
2023/03/21 04:55:02;;;;;;;11.50;4.80;;;9.40;99.90;;;;;;6194891;22;20020;-87
2023/03/21 04:57:28;;;;;;;12.13;4.40;;;9.40;99.90;;;;;;6192993;22;20012;-88
2023/03/21 04:59:53;;;;;;;12.60;5.20;;;9.40;99.90;;;;;;6244483;22;20107;-87
2023/03/21 05:02:20;;;;;;;11.23;4.43;;;9.40;99.90;;;;;;6272174;22;20019;-87
2023/03/21 05:04:45;;;;;;;13.43;4.25;;;9.40;99.90;;;;;;6220228;22;20031;-87
2023/03/21 05:07:14;;;;;;;8.60;3.37;;;9.40;99.90;;;;;;6245211;22;20340;-85
2023/03/21 05:09:40;;;;;;;10.93;4.22;;;9.40;99.90;;;;;;6219664;22;20016;-86
2023/03/21 05:12:06;;;;;;;10.07;4.00;;;9.40;99.90;;;;;;6194884;22;20012;-85
2023/03/21 05:14:31;;;;;;;8.07;2.97;;;9.40;99.90;;;;;;6271877;22;20437;-84
2023/03/21 05:16:58;;;;;;;10.73;4.00;;;9.40;99.90;;;;;;6244725;22;20012;-86
2023/03/21 05:19:39;;;;;;;10.38;4.15;;;9.40;99.90;;;;;;6169795;22;20071;-85
2023/03/21 05:22:39;;;;;;;10.23;3.95;;;9.40;99.90;;;;;;6219947;22;20019;-87
2023/03/21 05:25:38;;;;;;;8.60;3.78;;;9.40;99.90;;;;;;6243553;22;20105;-88
2023/03/21 05:28:19;;;;;;;10.43;4.10;;;9.40;99.90;;;;;;6244632;22;20405;-86
2023/03/21 05:30:46;;;;;;;11.20;3.85;;;9.40;99.90;;;;;;6219748;22;20452;-88
2023/03/21 05:33:12;;;;;;;10.75;3.53;;;9.40;99.90;;;;;;6242681;22;20015;-87
2023/03/21 05:35:38;;;;;;;10.25;3.90;;;9.30;99.90;;;;;;6188919;23;20047;-87
2023/03/21 05:38:04;;;;;;;8.80;3.83;;;9.40;99.90;;;;;;6239347;23;20039;-86
2023/03/21 05:40:29;;;;;;;10.23;4.03;;;9.40;99.90;;;;;;6240910;23;20020;-88
2023/03/21 05:43:04;;;;;;;11.93;4.30;;;9.40;99.90;;;;;;6239643;22;20059;-89
2023/03/21 05:45:30;;;;;;;10.73;4.18;;;9.40;99.90;;;;;;6214169;23;20020;-89
2023/03/21 05:47:56;;;;;;;12.53;4.87;;;9.40;99.90;;;;;;6241185;22;20020;-87
2023/03/21 05:50:21;;;;;;;9.83;3.83;;;9.40;99.90;;;;;;6241191;23;20247;-87
2023/03/21 05:52:47;;;;;;;9.53;4.13;;;9.40;99.90;;;;;;6242010;22;20385;-87
2023/03/21 05:55:13;;;;;;;11.83;4.17;;;9.40;99.90;;;;;;6216149;22;20044;-86
2023/03/21 05:57:39;;;;;;;10.10;4.07;;;9.40;99.90;;;;;;6244762;22;20027;-87
2023/03/21 06:00:06;;;;;;;;;;;9.40;99.90;;;;;;6243763;23;20032;-87
2023/03/21 06:02:32;;;;;;;11.85;4.35;;;9.40;99.90;;;;;;6239804;22;20320;-86
2023/03/21 06:04:57;;;;;;;10.73;3.90;;;9.40;99.90;;;;;;6240219;23;20069;-88
2023/03/21 06:07:23;;;;;;;10.33;4.13;;;9.40;99.90;;;;;;6241489;22;20097;-86
2023/03/21 06:09:49;;;;;;;10.83;4.43;;;9.40;99.90;;;;;;6240972;22;20016;-85
2023/03/21 06:12:15;;;;;;;12.43;4.60;;;9.40;99.90;;;;;;6240849;23;20088;-86
2023/03/21 06:14:40;;;;;;;9.60;4.20;;;9.40;99.90;;;;;;6240661;22;20376;-90
2023/03/21 06:17:06;;;;;;;11.23;4.00;;;9.40;99.90;;;;;;6242333;22;20027;-85
2023/03/21 06:19:56;;;;;;;9.77;3.97;;;9.50;99.90;;;;;;6242129;22;20378;-88
2023/03/21 06:22:22;;;;;;;10.25;3.78;;;9.50;99.90;;;;;;6215415;23;20097;-86
2023/03/21 06:24:53;;;;;;;10.17;4.27;;;9.50;99.90;;;;;;6215230;22;20452;-83
2023/03/21 06:27:19;;;;;;;9.57;3.97;;;9.50;99.90;;;;;;6242006;22;20227;-84
2023/03/21 06:29:45;;;;;;;8.97;3.73;;;9.50;99.90;;;;;;6242328;22;20031;-86
2023/03/21 06:32:11;;;;;;;10.03;3.67;;;9.50;99.90;;;;;;6241974;22;20084;-87
2023/03/21 06:34:37;;;;;;;8.60;3.65;;;9.50;99.90;;;;;;6243286;22;20020;-90
2023/03/21 06:37:18;;;;;;;8.93;2.87;;;9.50;99.90;;;;;;6273162;22;20030;-92
2023/03/21 06:40:04;;;;;;;7.68;2.92;;;9.50;99.90;;;;;;6245729;22;20042;-90
2023/03/21 06:42:31;;;;;;;6.95;2.60;;;9.50;99.90;;;;;;6220093;22;20425;-89
2023/03/21 06:44:57;;;;;;;8.02;2.90;;;9.50;99.90;;;;;;6245073;22;20076;-90
2023/03/21 06:47:22;;;;;;;9.02;3.90;;;9.50;99.90;;;;;;6271778;22;20008;-90
2023/03/21 06:50:05;;;;;;;9.30;3.20;;;9.50;99.90;;;;;;6220418;22;20023;-89
2023/03/21 06:52:31;;;;;;;7.05;2.65;;;9.50;99.90;;;;;;6195275;22;20020;-91
2023/03/21 06:54:57;;;;;;;7.33;2.67;;;9.50;99.90;;;;;;6219743;22;20018;-90
2023/03/21 06:57:23;;;;;;;8.07;3.37;;;9.50;99.90;;;;;;6220697;22;20572;-90
2023/03/21 06:59:48;;;;;;;8.93;3.13;;;9.60;99.90;;;;;;6220531;22;20020;-89
2023/03/21 07:02:14;;;;;;;7.80;3.30;;;9.60;99.90;;;;;;6246060;22;20012;-93
2023/03/21 07:04:40;;;;;;;7.70;2.72;;;9.60;99.90;;;;;;6197360;22;20119;-91
2023/03/21 07:07:06;;;;;;;9.32;4.25;;;9.50;99.90;;;;;;6223010;22;20073;-92
2023/03/21 07:09:32;;;;;;;7.33;3.20;;;9.60;99.90;;;;;;6194645;22;20019;-91
2023/03/21 07:11:57;;;;;;;8.73;3.20;;;9.60;99.90;;;;;;6220661;22;20016;-91
2023/03/21 07:14:24;;;;;;;7.07;2.93;;;9.60;99.90;;;;;;6195726;22;20019;-90
2023/03/21 07:16:50;;;;;;;8.77;3.35;;;9.60;99.90;;;;;;6244274;22;20016;-91
2023/03/21 07:19:16;;;;;;;9.90;3.40;;;9.60;99.90;;;;;;6246082;22;20045;-92
2023/03/21 07:21:51;;;;;;;8.40;3.40;;;9.70;99.90;;;;;;6221718;22;20102;-92
2023/03/21 07:24:17;;;;;;;8.63;3.45;;;9.70;99.90;;;;;;6195270;22;20448;-90
2023/03/21 07:26:43;;;;;;;8.83;3.80;;;9.70;99.90;;;;;;6195036;22;20072;-93
2023/03/21 07:29:08;;;;;;;8.57;3.40;;;9.70;99.90;;;;;;6194926;22;20110;-91
2023/03/21 07:31:35;;;;;;;7.43;3.23;;;9.70;99.90;;;;;;6245139;22;20102;-90
2023/03/21 07:34:01;;;;;;;;;;;9.70;99.90;;;;;;6220309;22;20047;-90
2023/03/21 07:36:27;;;;;;;7.90;3.35;;;9.70;99.90;;;;;;6244937;22;19922;-90
2023/03/21 07:38:52;;;;;;;7.28;3.20;;;9.70;99.90;;;;;;6219583;22;20062;-90
2023/03/21 07:41:18;;;;;;;7.03;3.30;;;9.70;99.90;;;;;;6272057;22;20011;-90
2023/03/21 07:43:44;;;;;;;7.23;2.93;;;9.70;99.90;;;;;;6245059;22;20352;-90
2023/03/21 07:46:10;;;;;;;8.65;3.50;;;9.70;99.90;;;;;;6272070;22;20020;-91
2023/03/21 07:48:36;;;;;;;8.27;3.33;;;9.70;99.90;;;;;;6245068;22;20026;-89
2023/03/21 07:51:05;;;;;;;7.97;3.42;;;9.70;99.90;;;;;;6245427;22;20049;-90
2023/03/21 07:53:30;;;;;;;8.32;3.38;;;9.70;99.90;;;;;;6195205;22;20441;-90
2023/03/21 07:55:56;;;;;;;8.10;3.27;;;9.70;99.90;;;;;;6244899;22;20016;-91
2023/03/21 07:58:26;;;;;;;7.50;3.17;;;9.80;99.90;;;;;;6245094;22;20018;-90
2023/03/21 08:00:52;;;;;;;6.35;2.53;;;9.80;99.90;;;;;;6272252;22;20020;-94
2023/03/21 08:03:18;;;;;;;7.25;3.00;;;9.80;99.90;;;;;;6272371;22;20098;-89
2023/03/21 08:05:45;;;;;;;6.65;2.58;;;9.80;99.90;;;;;;6272075;22;20046;-92
2023/03/21 08:08:10;;;;;;;7.25;2.88;;;9.80;99.90;;;;;;6194821;22;20019;-89
2023/03/21 08:10:36;;;;;;;5.67;2.47;;;9.80;99.90;;;;;;6326073;22;20047;-92
2023/03/21 08:13:02;;;;;;;6.82;3.00;;;9.80;99.90;;;;;;6245316;22;20019;-92
2023/03/21 08:15:28;;;;;;;5.77;2.57;;;9.80;99.90;;;;;;6219810;22;20100;-91
2023/03/21 08:17:54;;;;;;;7.17;2.83;;;9.80;99.90;;;;;;6272046;22;20031;-88
2023/03/21 08:20:22;;;;;;;6.93;2.53;;;9.80;99.90;;;;;;6244967;22;20094;-89
2023/03/21 08:22:48;;;;;;;6.40;2.65;;;9.80;99.90;;;;;;6271945;22;20065;-89
2023/03/21 08:25:16;;;;;;;6.80;2.75;;;9.80;99.90;;;;;;6245131;22;20504;-88
2023/03/21 08:27:43;;;;;;;6.03;2.63;;;9.80;99.90;;;;;;6219671;22;20015;-88
2023/03/21 08:30:11;;;;;;;6.63;2.70;;;9.80;99.90;;;;;;6271984;22;20020;-89
2023/03/21 08:32:37;;;;;;;6.32;2.38;;;9.90;99.90;;;;;;6244859;22;20016;-88
2023/03/21 08:35:08;;;;;;;5.85;1.92;;;9.90;99.90;;;;;;6271893;22;20016;-90
2023/03/21 08:37:38;;;;;;;5.80;2.40;;;9.90;99.90;;;;;;6272223;22;20019;-88
2023/03/21 08:40:07;;;;;;;5.63;2.10;;;9.90;99.90;;;;;;6245141;22;20448;-88
2023/03/21 08:42:34;;;;;;;5.20;1.98;;;9.90;99.90;;;;;;6272042;22;20345;-89
2023/03/21 08:45:00;;;;;;;4.22;1.83;;;9.90;99.90;;;;;;6245445;22;20505;-89
2023/03/21 08:47:25;;;;;;;5.70;2.33;;;9.90;99.90;;;;;;6274058;22;20019;-89
2023/03/21 08:49:51;;;;;;;5.00;1.93;;;9.90;99.90;;;;;;6252504;22;20018;-89
2023/03/21 08:52:17;;;;;;;6.57;2.50;;;9.90;99.90;;;;;;6230780;22;20067;-89
2023/03/21 08:54:44;;;;;;;5.17;2.33;;;9.90;99.90;;;;;;6286242;22;20016;-89
2023/03/21 08:57:10;;;;;;;4.82;2.13;;;9.90;99.90;;;;;;6280039;22;20015;-89
2023/03/21 08:59:36;;;;;;;4.28;1.55;;;9.90;99.90;;;;;;6272607;22;20030;-89
2023/03/21 09:02:02;;;;;;;4.75;1.73;;;9.90;99.90;;;;;;6271909;22;20020;-90
2023/03/21 09:04:29;;;;;;;4.67;2.03;;;9.90;99.90;;;;;;6219904;22;20092;-90
2023/03/21 09:06:56;;;;;;;3.95;1.67;;;9.90;99.90;;;;;;6271866;22;20083;-91
2023/03/21 09:09:21;;;;;;;4.13;1.83;;;9.90;99.90;;;;;;6244761;22;20023;-93
2023/03/21 09:11:47;;;;;;;4.43;1.80;;;9.90;99.90;;;;;;6220060;22;20022;-90
2023/03/21 09:14:13;;;;;;;3.47;1.50;;;9.90;99.90;;;;;;6245616;22;20019;-92
2023/03/21 09:16:40;;;;;;;4.97;1.60;;;9.90;99.90;;;;;;6193717;22;20011;-91
2023/03/21 09:19:07;;;;;;;3.83;1.48;;;9.90;99.90;;;;;;6193810;22;20020;-89
2023/03/21 09:21:34;;;;;;;4.65;1.70;;;9.90;99.90;;;;;;6245065;22;20019;-95
2023/03/21 09:24:01;;;;;;;4.55;1.98;;;9.90;99.90;;;;;;6245476;22;20444;-91
2023/03/21 09:26:27;;;;;;;;;;;9.90;99.90;;;;;;6245605;22;20092;-93
2023/03/21 09:28:54;;;;;;;5.00;1.88;;;9.90;99.90;;;;;;6220340;22;19915;-90
2023/03/21 09:31:21;;;;;;;5.00;2.05;;;9.90;99.90;;;;;;6220803;22;20318;-92
2023/03/21 09:33:48;;;;;;;6.20;2.40;;;9.90;99.90;;;;;;6219956;22;20077;-89
2023/03/21 09:36:14;;;;;;;;;;;9.90;99.90;;;;;;6245587;22;20020;-89
2023/03/21 09:38:41;;;;;;;9.38;3.28;;;9.90;99.90;;;;;;6271887;22;19969;-94
2023/03/21 09:41:26;;;;;;;8.13;3.38;;;9.90;99.90;;;;;;6246490;22;20020;-92
2023/03/21 09:44:03;;;;;;;7.95;3.25;;;9.90;99.90;;;;;;6272979;22;20027;-94
2023/03/21 09:46:41;;;;;;;6.32;3.17;;;9.90;99.90;;;;;;6246334;22;20440;-91
2023/03/21 09:49:29;;;;;;;7.78;3.70;;;9.90;99.90;;;;;;6220717;22;20016;-91
2023/03/21 09:52:02;;;;;;;7.78;3.92;;;9.90;99.90;;;;;;6246065;22;20095;-91
2023/03/21 09:54:32;;;;;;;7.00;3.97;;;9.90;99.90;;;;;;6245967;22;20016;-92
2023/03/21 09:57:04;;;;;;;8.32;4.03;;;9.90;99.90;;;;;;6220632;22;20349;-92
2023/03/21 09:59:39;;;;;;;10.18;4.20;;;9.90;99.90;;;;;;6248146;22;20386;-92
2023/03/21 10:02:37;;;;;;;8.68;4.53;;;10.00;99.90;;;;;;6224734;22;20022;-93
2023/03/21 10:05:23;;;;;;;8.65;4.00;;;9.90;99.90;;;;;;6223651;22;20011;-92
2023/03/21 10:08:26;;;;;;;9.35;4.75;;;9.90;99.90;;;;;;6248874;22;20091;-90
2023/03/21 10:11:04;;;;;;;9.25;4.13;;;9.90;99.90;;;;;;6246261;22;20012;-90
2023/03/21 10:13:38;;;;;;;9.40;4.28;;;9.90;99.90;;;;;;6247184;22;20018;-94
2023/03/21 10:16:13;;;;;;;10.15;4.53;;;9.90;99.90;;;;;;6222306;22;20095;-93
2023/03/21 10:18:41;;;;;;;11.75;4.88;;;9.90;99.90;;;;;;6221143;22;20016;-95
2023/03/21 10:21:13;;;;;;;9.88;5.10;;;9.90;99.90;;;;;;6196900;22;20019;-92
2023/03/21 10:23:58;;;;;;;8.77;5.07;;;9.90;99.90;;;;;;6222159;22;20019;-91
2023/03/21 10:26:29;;;;;;;10.18;4.85;;;9.90;99.90;;;;;;6252694;22;20039;-84
2023/03/21 10:28:58;;;;;;;8.52;4.90;;;9.90;99.90;;;;;;6230478;22;20016;-89
2023/03/21 10:31:27;;;;;;;9.07;4.97;;;9.90;99.90;;;;;;6226414;22;20385;-91
2023/03/21 10:33:56;;;;;;;11.43;5.60;;;9.90;99.90;;;;;;6245677;22;20322;-91
2023/03/21 10:36:26;;;;;;;10.93;5.63;;;9.90;99.90;;;;;;6273909;22;20027;-90
2023/03/21 10:39:11;;;;;;;10.82;5.70;;;9.90;99.90;;;;;;6222223;22;20020;-94
2023/03/21 10:41:39;;;;;;;13.50;6.43;;;9.90;99.90;;;;;;6246169;22;20027;-93
2023/03/21 10:44:13;;;;;;;11.43;6.03;;;9.90;99.90;;;;;;6221148;22;20023;-91
2023/03/21 10:47:10;;;;;;;13.10;6.20;;;9.90;99.90;;;;;;6246507;22;20456;-92
2023/03/21 10:49:37;;;;;;;11.85;5.55;;;9.90;99.90;;;;;;6220484;22;20071;-90
2023/03/21 10:52:25;;;;;;;12.57;6.55;;;9.90;99.90;;;;;;6221253;22;20098;-91
2023/03/21 10:55:25;;;;;;;11.60;5.97;;;9.90;99.90;;;;;;6247135;22;20107;-93
2023/03/21 10:58:06;;;;;;;12.15;6.32;;;10.00;99.90;;;;;;6233188;22;20020;-90
2023/03/21 11:00:42;;;;;;;13.50;6.82;;;10.00;99.90;;;;;;6222274;22;20165;-90
2023/03/21 11:03:22;;;;;;;12.30;6.60;;;10.00;99.90;;;;;;6247140;22;20011;-94
2023/03/21 11:05:51;;;;;;;11.95;5.88;;;10.00;99.90;;;;;;6223112;22;20337;-91
2023/03/21 11:08:18;;;;;;;10.95;5.97;;;10.10;99.90;;;;;;6223232;22;20444;-91
2023/03/21 11:10:50;;;;;;;;;;;10.10;99.90;;;;;;6249021;22;20065;-91
2023/03/21 11:13:25;;;;;;;11.98;5.90;;;10.10;99.90;;;;;;6223813;22;19915;-94
2023/03/21 11:16:08;;;;;;;10.18;6.05;;;10.20;99.90;;;;;;6223870;22;20016;-93
2023/03/21 11:18:39;;;;;;;10.80;6.30;;;10.20;99.90;;;;;;6221583;22;20088;-90
2023/03/21 11:21:10;;;;;;;13.40;6.15;;;10.20;99.90;;;;;;6222408;22;20019;-93
2023/03/21 11:23:43;;;;;;;11.75;5.53;;;10.30;99.90;;;;;;6221834;22;20243;-93
2023/03/21 11:26:25;;;;;;;11.82;5.55;;;10.30;99.90;;;;;;6218648;22;20094;-92
2023/03/21 11:28:52;;;;;;;11.43;5.78;;;10.30;99.90;;;;;;6221513;22;20016;-95
2023/03/21 11:31:18;;;;;;;;;;;10.40;99.90;;;;;;6221091;22;20326;-92
2023/03/21 11:33:53;;;;;;;11.68;5.43;;;10.40;99.90;;;;;;6219414;22;19964;-93
2023/03/21 11:36:18;;;;;;;10.32;5.30;;;10.50;99.90;;;;;;6239988;23;20027;-93
2023/03/21 11:38:58;;;;;;;12.07;4.97;;;10.60;99.90;;;;;;6215578;22;20024;-90
2023/03/21 11:41:27;;;;;;;11.50;4.93;;;10.60;99.90;;;;;;6217284;22;20338;-91
2023/03/21 11:43:53;;;;;;;10.68;4.93;;;10.60;99.90;;;;;;6217548;22;20012;-93
2023/03/21 11:46:24;;;;;;;11.10;5.38;;;10.60;99.90;;;;;;6197693;23;20020;-93
2023/03/21 11:48:51;;;;;;;12.27;5.57;;;10.70;99.90;;;;;;6226229;23;20060;-91
2023/03/21 11:51:52;;;;;;;10.13;4.75;;;10.70;99.90;;;;;;6252072;23;20042;-90
2023/03/21 11:54:47;;;;;;;8.48;4.40;;;10.80;99.90;;;;;;6241495;23;20349;-89
2023/03/21 11:57:22;;;;;;;8.88;4.47;;;10.80;99.90;;;;;;6214749;23;20467;-90
2023/03/21 12:00:21;;;;;;;9.82;4.72;;;10.80;99.90;;;;;;6214362;22;20016;-90
2023/03/21 12:03:08;;;;;;;8.73;4.93;;;10.90;99.90;;;;;;6212232;22;20027;-91
2023/03/21 12:05:39;;;;;;;11.07;4.85;;;10.90;99.90;;;;;;6240927;22;20050;-91
2023/03/21 12:08:42;;;;;;;9.90;4.63;;;11.00;99.90;;;;;;6238496;23;20047;-90
2023/03/21 12:11:47;;;;;;;10.77;4.82;;;11.00;99.90;;;;;;6213571;22;20012;-89
2023/03/21 12:14:29;;;;;;;9.45;4.72;;;11.00;99.90;;;;;;6272657;22;20016;-89
2023/03/21 12:17:21;;;;;;;11.68;4.97;;;11.10;99.90;;;;;;6241238;22;20020;-89
2023/03/21 12:20:29;;;;;;;11.75;4.88;;;11.10;99.90;;;;;;6217244;22;20021;-90
2023/03/21 12:23:12;;;;;;;7.68;3.97;;;11.10;99.90;;;;;;6240698;22;20024;-89
2023/03/21 12:25:55;;;;;;;10.73;5.13;;;11.00;99.90;;;;;;6241140;22;20098;-89
2023/03/21 12:28:48;;;;;;;9.52;4.53;;;11.00;99.90;;;;;;6214196;23;20023;-89
2023/03/21 12:31:29;;;;;;;10.73;4.55;;;11.00;99.90;;;;;;6241125;22;20020;-91
2023/03/21 12:34:11;;;;;;;8.45;4.47;;;11.00;99.90;;;;;;6239671;23;20020;-90
2023/03/21 12:36:55;;;;;;;9.68;4.57;;;11.00;99.90;;;;;;6239677;22;20024;-90
2023/03/21 12:39:34;;;;;;;10.55;3.92;;;11.00;99.90;;;;;;6241069;22;20407;-91
2023/03/21 12:42:12;;;;;;;9.23;4.00;;;11.00;99.90;;;;;;6239551;23;20112;-89
2023/03/21 12:45:19;;;;;;;8.05;3.78;;;11.00;99.90;;;;;;6241300;22;20016;-90
2023/03/21 12:47:50;;;;;;;8.73;3.97;;;11.00;99.90;;;;;;6239441;22;20072;-90
2023/03/21 12:50:36;;;;;;;7.75;4.13;;;10.90;99.90;;;;;;6239632;23;20467;-90
2023/03/21 12:53:22;;;;;;;9.20;4.25;;;10.90;99.90;;;;;;6239802;23;20012;-90
2023/03/21 12:55:49;;;;;;;9.98;4.22;;;10.90;99.90;;;;;;6245239;22;20020;-89
2023/03/21 12:58:17;;;;;;;;;;;10.90;99.90;;;;;;6241748;22;20024;-90
2023/03/21 13:00:50;;;;;;;9.80;4.38;;;10.90;99.90;;;;;;6241404;22;19967;-89
2023/03/21 13:03:36;;;;;;;7.93;3.85;;;10.90;99.90;;;;;;6239546;23;20012;-89
2023/03/21 13:06:04;;;;;;;8.85;4.53;;;10.90;99.90;;;;;;6214418;22;20024;-89
2023/03/21 13:08:48;;;;;;;8.60;4.45;;;10.90;99.90;;;;;;6241172;22;20048;-89
2023/03/21 13:11:21;;;;;;;10.07;4.22;;;11.00;99.90;;;;;;6214638;22;20023;-89
2023/03/21 13:14:13;;;;;;;7.90;4.30;;;11.00;99.90;;;;;;6240989;22;20017;-89
2023/03/21 13:16:46;;;;;;;8.45;3.88;;;11.00;99.90;;;;;;6239723;23;20024;-90
2023/03/21 13:19:42;;;;;;;7.90;4.28;;;11.10;99.90;;;;;;6239741;23;20482;-90
2023/03/21 13:22:21;;;;;;;10.32;3.80;;;11.10;99.90;;;;;;6239528;23;20016;-91
2023/03/21 13:24:49;;;;;;;7.60;4.25;;;11.10;99.90;;;;;;6241436;22;20020;-92
2023/03/21 13:27:33;;;;;;;7.72;3.70;;;11.10;99.90;;;;;;6239983;23;20062;-88
2023/03/21 13:30:06;;;;;;;10.02;4.25;;;11.20;99.90;;;;;;6239631;22;20024;-89
2023/03/21 13:32:36;;;;;;;9.85;4.30;;;11.30;99.90;;;;;;6241137;22;20042;-92
2023/03/21 13:35:17;;;;;;;8.07;3.97;;;11.30;99.90;;;;;;6242984;22;20012;-91